sensor_id;sensor_type;location;lat;lon;timestamp;P1;durP1;ratioP1;P2;durP2;ratioP2
47335;SDS011;33068;51.990;5.926;2023-03-23T00:02:22;5.63;;;4.00;;
47335;SDS011;33068;51.990;5.926;2023-03-23T00:05:12;9.02;;;4.32;;
47335;SDS011;33068;51.990;5.926;2023-03-23T00:15:48;10.23;;;3.95;;
47335;SDS011;33068;51.990;5.926;2023-03-23T00:18:39;7.88;;;3.33;;
47335;SDS011;33068;51.990;5.926;2023-03-23T00:25:21;7.53;;;3.30;;
47335;SDS011;33068;51.990;5.926;2023-03-23T00:27:52;4.85;;;2.63;;
47335;SDS011;33068;51.990;5.926;2023-03-23T00:30:37;5.85;;;3.70;;
47335;SDS011;33068;51.990;5.926;2023-03-23T00:33:11;5.55;;;3.00;;
47335;SDS011;33068;51.990;5.926;2023-03-23T00:36:29;9.88;;;3.65;;
47335;SDS011;33068;51.990;5.926;2023-03-23T00:42:13;7.55;;;2.95;;
47335;SDS011;33068;51.990;5.926;2023-03-23T00:45:05;9.50;;;2.97;;
47335;SDS011;33068;51.990;5.926;2023-03-23T00:48:23;5.93;;;3.53;;
47335;SDS011;33068;51.990;5.926;2023-03-23T00:51:05;6.18;;;3.17;;
47335;SDS011;33068;51.990;5.926;2023-03-23T00:53:59;6.35;;;3.25;;
47335;SDS011;33068;51.990;5.926;2023-03-23T00:56:56;5.30;;;2.97;;
47335;SDS011;33068;51.990;5.926;2023-03-23T01:02:03;4.57;;;2.67;;
47335;SDS011;33068;51.990;5.926;2023-03-23T01:04:47;4.55;;;3.17;;
47335;SDS011;33068;51.990;5.926;2023-03-23T01:07:17;5.68;;;3.42;;
47335;SDS011;33068;51.990;5.926;2023-03-23T01:13:23;4.35;;;3.13;;
47335;SDS011;33068;51.990;5.926;2023-03-23T01:15:59;8.20;;;3.65;;
47335;SDS011;33068;51.990;5.926;2023-03-23T01:18:57;11.55;;;3.70;;
47335;SDS011;33068;51.990;5.926;2023-03-23T01:22:03;9.20;;;3.20;;
47335;SDS011;33068;51.990;5.926;2023-03-23T01:24:47;9.13;;;3.97;;
47335;SDS011;33068;51.990;5.926;2023-03-23T01:30:14;8.88;;;3.67;;
47335;SDS011;33068;51.990;5.926;2023-03-23T01:33:36;5.13;;;3.15;;
47335;SDS011;33068;51.990;5.926;2023-03-23T01:36:23;4.35;;;2.80;;
47335;SDS011;33068;51.990;5.926;2023-03-23T01:39:13;8.90;;;3.45;;
47335;SDS011;33068;51.990;5.926;2023-03-23T01:41:51;8.13;;;4.07;;
47335;SDS011;33068;51.990;5.926;2023-03-23T01:47:59;7.13;;;3.38;;
47335;SDS011;33068;51.990;5.926;2023-03-23T01:57:15;4.38;;;2.90;;
47335;SDS011;33068;51.990;5.926;2023-03-23T02:00:01;5.93;;;3.30;;
47335;SDS011;33068;51.990;5.926;2023-03-23T02:05:41;6.55;;;3.17;;
47335;SDS011;33068;51.990;5.926;2023-03-23T02:08:14;6.65;;;3.15;;
47335;SDS011;33068;51.990;5.926;2023-03-23T02:10:44;6.82;;;3.08;;
47335;SDS011;33068;51.990;5.926;2023-03-23T02:13:11;7.50;;;3.67;;
47335;SDS011;33068;51.990;5.926;2023-03-23T02:15:42;6.90;;;3.75;;
47335;SDS011;33068;51.990;5.926;2023-03-23T02:18:23;8.07;;;4.13;;
47335;SDS011;33068;51.990;5.926;2023-03-23T02:21:16;4.18;;;3.35;;
47335;SDS011;33068;51.990;5.926;2023-03-23T02:24:00;7.75;;;3.63;;
47335;SDS011;33068;51.990;5.926;2023-03-23T02:26:47;5.10;;;3.33;;
47335;SDS011;33068;51.990;5.926;2023-03-23T02:32:16;7.63;;;3.80;;
47335;SDS011;33068;51.990;5.926;2023-03-23T02:34:54;7.35;;;3.58;;
47335;SDS011;33068;51.990;5.926;2023-03-23T02:37:27;6.00;;;3.72;;
47335;SDS011;33068;51.990;5.926;2023-03-23T02:40:01;7.35;;;3.60;;
47335;SDS011;33068;51.990;5.926;2023-03-23T02:42:33;5.13;;;3.28;;
47335;SDS011;33068;51.990;5.926;2023-03-23T02:45:06;6.38;;;3.20;;
47335;SDS011;33068;51.990;5.926;2023-03-23T02:47:37;3.92;;;2.92;;
47335;SDS011;33068;51.990;5.926;2023-03-23T02:50:08;6.97;;;3.20;;
47335;SDS011;33068;51.990;5.926;2023-03-23T02:52:42;7.82;;;4.03;;
47335;SDS011;33068;51.990;5.926;2023-03-23T02:55:14;6.30;;;3.53;;
47335;SDS011;33068;51.990;5.926;2023-03-23T02:57:43;6.40;;;3.58;;
47335;SDS011;33068;51.990;5.926;2023-03-23T03:00:14;8.95;;;3.33;;
47335;SDS011;33068;51.990;5.926;2023-03-23T03:02:46;8.10;;;3.50;;
47335;SDS011;33068;51.990;5.926;2023-03-23T03:05:21;3.38;;;3.00;;
47335;SDS011;33068;51.990;5.926;2023-03-23T03:07:59;4.97;;;2.78;;
47335;SDS011;33068;51.990;5.926;2023-03-23T03:10:36;6.15;;;3.13;;
47335;SDS011;33068;51.990;5.926;2023-03-23T03:13:11;4.63;;;2.85;;
47335;SDS011;33068;51.990;5.926;2023-03-23T03:18:21;6.80;;;2.90;;
47335;SDS011;33068;51.990;5.926;2023-03-23T03:20:53;7.13;;;3.85;;
47335;SDS011;33068;51.990;5.926;2023-03-23T03:23:26;11.25;;;3.42;;
47335;SDS011;33068;51.990;5.926;2023-03-23T03:25:57;4.90;;;2.70;;
47335;SDS011;33068;51.990;5.926;2023-03-23T03:28:38;4.72;;;2.70;;
47335;SDS011;33068;51.990;5.926;2023-03-23T03:31:07;6.40;;;2.97;;
47335;SDS011;33068;51.990;5.926;2023-03-23T03:33:36;6.90;;;3.42;;
47335;SDS011;33068;51.990;5.926;2023-03-23T03:36:05;5.15;;;3.10;;
47335;SDS011;33068;51.990;5.926;2023-03-23T03:38:40;8.07;;;3.33;;
47335;SDS011;33068;51.990;5.926;2023-03-23T03:41:09;5.70;;;3.65;;
47335;SDS011;33068;51.990;5.926;2023-03-23T03:43:36;6.82;;;3.03;;
47335;SDS011;33068;51.990;5.926;2023-03-23T03:46:03;7.03;;;3.10;;
47335;SDS011;33068;51.990;5.926;2023-03-23T03:48:31;6.18;;;3.30;;
47335;SDS011;33068;51.990;5.926;2023-03-23T03:50:59;7.47;;;3.22;;
47335;SDS011;33068;51.990;5.926;2023-03-23T03:53:30;6.43;;;3.70;;
47335;SDS011;33068;51.990;5.926;2023-03-23T03:55:58;7.03;;;3.20;;
47335;SDS011;33068;51.990;5.926;2023-03-23T03:58:31;6.72;;;3.28;;
47335;SDS011;33068;51.990;5.926;2023-03-23T04:01:08;4.65;;;3.15;;
47335;SDS011;33068;51.990;5.926;2023-03-23T04:03:37;5.40;;;3.25;;
47335;SDS011;33068;51.990;5.926;2023-03-23T04:06:15;7.13;;;3.13;;
47335;SDS011;33068;51.990;5.926;2023-03-23T04:08:44;5.28;;;3.45;;
47335;SDS011;33068;51.990;5.926;2023-03-23T04:11:12;6.68;;;3.35;;
47335;SDS011;33068;51.990;5.926;2023-03-23T04:13:41;7.00;;;3.10;;
47335;SDS011;33068;51.990;5.926;2023-03-23T04:16:30;9.00;;;3.38;;
47335;SDS011;33068;51.990;5.926;2023-03-23T04:19:00;6.22;;;3.13;;
47335;SDS011;33068;51.990;5.926;2023-03-23T04:21:28;6.78;;;3.00;;
47335;SDS011;33068;51.990;5.926;2023-03-23T04:23:56;4.80;;;3.10;;
47335;SDS011;33068;51.990;5.926;2023-03-23T04:26:25;4.65;;;2.70;;
47335;SDS011;33068;51.990;5.926;2023-03-23T04:28:57;4.35;;;2.90;;
47335;SDS011;33068;51.990;5.926;2023-03-23T04:31:27;3.67;;;2.58;;
47335;SDS011;33068;51.990;5.926;2023-03-23T04:34:08;6.57;;;2.58;;
47335;SDS011;33068;51.990;5.926;2023-03-23T04:36:42;6.05;;;2.47;;
47335;SDS011;33068;51.990;5.926;2023-03-23T04:39:16;4.13;;;2.70;;
47335;SDS011;33068;51.990;5.926;2023-03-23T04:41:44;4.47;;;2.17;;
47335;SDS011;33068;51.990;5.926;2023-03-23T04:44:32;3.17;;;2.42;;
47335;SDS011;33068;51.990;5.926;2023-03-23T04:47:04;3.80;;;2.10;;
47335;SDS011;33068;51.990;5.926;2023-03-23T04:49:37;5.45;;;2.20;;
47335;SDS011;33068;51.990;5.926;2023-03-23T04:52:17;6.63;;;1.92;;
47335;SDS011;33068;51.990;5.926;2023-03-23T04:54:54;4.70;;;2.00;;
47335;SDS011;33068;51.990;5.926;2023-03-23T04:57:22;6.00;;;2.03;;
47335;SDS011;33068;51.990;5.926;2023-03-23T05:00:11;5.65;;;2.05;;
47335;SDS011;33068;51.990;5.926;2023-03-23T05:02:46;5.45;;;2.13;;
47335;SDS011;33068;51.990;5.926;2023-03-23T05:05:17;8.20;;;1.77;;
47335;SDS011;33068;51.990;5.926;2023-03-23T05:07:47;5.25;;;1.73;;
47335;SDS011;33068;51.990;5.926;2023-03-23T05:10:19;3.22;;;1.65;;
47335;SDS011;33068;51.990;5.926;2023-03-23T05:12:47;12.43;;;1.77;;
47335;SDS011;33068;51.990;5.926;2023-03-23T05:15:14;3.95;;;1.55;;
47335;SDS011;33068;51.990;5.926;2023-03-23T05:17:44;12.50;;;1.85;;
47335;SDS011;33068;51.990;5.926;2023-03-23T05:20:15;5.45;;;1.42;;
47335;SDS011;33068;51.990;5.926;2023-03-23T05:22:52;8.00;;;1.63;;
47335;SDS011;33068;51.990;5.926;2023-03-23T05:25:29;11.80;;;2.03;;
47335;SDS011;33068;51.990;5.926;2023-03-23T05:28:02;3.17;;;1.23;;
47335;SDS011;33068;51.990;5.926;2023-03-23T05:30:50;6.68;;;1.60;;
47335;SDS011;33068;51.990;5.926;2023-03-23T05:33:18;7.65;;;1.48;;
47335;SDS011;33068;51.990;5.926;2023-03-23T05:36:00;10.45;;;1.10;;
47335;SDS011;33068;51.990;5.926;2023-03-23T05:38:36;6.60;;;1.65;;
47335;SDS011;33068;51.990;5.926;2023-03-23T05:41:07;7.63;;;1.60;;
47335;SDS011;33068;51.990;5.926;2023-03-23T05:43:39;5.38;;;0.88;;
47335;SDS011;33068;51.990;5.926;2023-03-23T05:46:21;4.18;;;0.90;;
47335;SDS011;33068;51.990;5.926;2023-03-23T05:48:54;5.93;;;1.42;;
47335;SDS011;33068;51.990;5.926;2023-03-23T05:51:28;7.38;;;1.15;;
47335;SDS011;33068;51.990;5.926;2023-03-23T05:53:58;9.82;;;1.50;;
47335;SDS011;33068;51.990;5.926;2023-03-23T05:56:27;5.25;;;0.88;;
47335;SDS011;33068;51.990;5.926;2023-03-23T05:59:09;17.00;;;1.42;;
47335;SDS011;33068;51.990;5.926;2023-03-23T06:01:38;5.20;;;1.35;;
47335;SDS011;33068;51.990;5.926;2023-03-23T06:04:05;8.15;;;1.20;;
47335;SDS011;33068;51.990;5.926;2023-03-23T06:06:39;14.30;;;1.77;;
47335;SDS011;33068;51.990;5.926;2023-03-23T06:09:09;6.18;;;0.95;;
47335;SDS011;33068;51.990;5.926;2023-03-23T06:12:00;10.60;;;1.38;;
47335;SDS011;33068;51.990;5.926;2023-03-23T06:15:02;6.28;;;0.80;;
47335;SDS011;33068;51.990;5.926;2023-03-23T06:17:53;6.93;;;0.88;;
47335;SDS011;33068;51.990;5.926;2023-03-23T06:20:27;5.45;;;1.10;;
47335;SDS011;33068;51.990;5.926;2023-03-23T06:22:55;10.95;;;0.98;;
47335;SDS011;33068;51.990;5.926;2023-03-23T06:25:27;5.40;;;0.75;;
47335;SDS011;33068;51.990;5.926;2023-03-23T06:27:57;6.90;;;0.88;;
47335;SDS011;33068;51.990;5.926;2023-03-23T06:30:26;7.47;;;0.93;;
47335;SDS011;33068;51.990;5.926;2023-03-23T06:32:56;8.63;;;1.45;;
47335;SDS011;33068;51.990;5.926;2023-03-23T06:35:52;5.30;;;0.98;;
47335;SDS011;33068;51.990;5.926;2023-03-23T06:38:41;2.97;;;1.17;;
47335;SDS011;33068;51.990;5.926;2023-03-23T06:41:10;4.80;;;1.08;;
47335;SDS011;33068;51.990;5.926;2023-03-23T06:43:39;7.00;;;1.30;;
47335;SDS011;33068;51.990;5.926;2023-03-23T06:46:24;8.05;;;1.25;;
47335;SDS011;33068;51.990;5.926;2023-03-23T06:49:16;7.28;;;1.38;;
47335;SDS011;33068;51.990;5.926;2023-03-23T06:51:56;4.85;;;1.08;;
47335;SDS011;33068;51.990;5.926;2023-03-23T06:54:25;8.07;;;1.00;;
47335;SDS011;33068;51.990;5.926;2023-03-23T06:56:53;3.58;;;1.00;;
47335;SDS011;33068;51.990;5.926;2023-03-23T06:59:22;8.52;;;1.08;;
47335;SDS011;33068;51.990;5.926;2023-03-23T07:01:50;4.80;;;1.00;;
47335;SDS011;33068;51.990;5.926;2023-03-23T07:04:17;5.20;;;0.88;;
47335;SDS011;33068;51.990;5.926;2023-03-23T07:07:01;4.75;;;0.80;;
47335;SDS011;33068;51.990;5.926;2023-03-23T07:09:34;9.82;;;1.10;;
47335;SDS011;33068;51.990;5.926;2023-03-23T07:12:02;7.28;;;1.42;;
47335;SDS011;33068;51.990;5.926;2023-03-23T07:14:37;9.00;;;1.00;;
47335;SDS011;33068;51.990;5.926;2023-03-23T07:17:05;15.45;;;1.52;;
47335;SDS011;33068;51.990;5.926;2023-03-23T07:19:42;3.10;;;0.80;;
47335;SDS011;33068;51.990;5.926;2023-03-23T07:22:12;4.93;;;1.00;;
47335;SDS011;33068;51.990;5.926;2023-03-23T07:24:43;5.50;;;1.50;;
47335;SDS011;33068;51.990;5.926;2023-03-23T07:27:17;10.23;;;1.83;;
47335;SDS011;33068;51.990;5.926;2023-03-23T07:29:57;7.68;;;1.38;;
47335;SDS011;33068;51.990;5.926;2023-03-23T07:32:25;8.82;;;1.23;;
47335;SDS011;33068;51.990;5.926;2023-03-23T07:34:53;9.95;;;1.67;;
47335;SDS011;33068;51.990;5.926;2023-03-23T07:37:41;8.02;;;1.17;;
47335;SDS011;33068;51.990;5.926;2023-03-23T07:40:12;7.82;;;1.02;;
47335;SDS011;33068;51.990;5.926;2023-03-23T07:42:43;8.80;;;1.33;;
47335;SDS011;33068;51.990;5.926;2023-03-23T07:45:25;8.55;;;0.63;;
47335;SDS011;33068;51.990;5.926;2023-03-23T07:47:55;8.02;;;0.90;;
47335;SDS011;33068;51.990;5.926;2023-03-23T07:50:22;7.22;;;0.77;;
47335;SDS011;33068;51.990;5.926;2023-03-23T07:52:53;4.20;;;0.82;;
47335;SDS011;33068;51.990;5.926;2023-03-23T07:55:22;5.07;;;0.65;;
47335;SDS011;33068;51.990;5.926;2023-03-23T07:58:00;4.72;;;0.80;;
47335;SDS011;33068;51.990;5.926;2023-03-23T08:00:29;6.22;;;0.90;;
47335;SDS011;33068;51.990;5.926;2023-03-23T08:03:04;4.60;;;0.90;;
47335;SDS011;33068;51.990;5.926;2023-03-23T08:05:36;12.05;;;0.70;;
47335;SDS011;33068;51.990;5.926;2023-03-23T08:08:23;6.63;;;0.98;;
47335;SDS011;33068;51.990;5.926;2023-03-23T08:11:11;1.88;;;0.85;;
47335;SDS011;33068;51.990;5.926;2023-03-23T08:14:06;8.23;;;1.10;;
47335;SDS011;33068;51.990;5.926;2023-03-23T08:17:01;5.72;;;1.15;;
47335;SDS011;33068;51.990;5.926;2023-03-23T08:19:48;6.97;;;1.63;;
47335;SDS011;33068;51.990;5.926;2023-03-23T08:22:38;7.35;;;1.65;;
47335;SDS011;33068;51.990;5.926;2023-03-23T08:25:25;8.82;;;1.40;;
47335;SDS011;33068;51.990;5.926;2023-03-23T08:28:18;7.63;;;1.98;;
47335;SDS011;33068;51.990;5.926;2023-03-23T08:31:13;8.15;;;1.85;;
47335;SDS011;33068;51.990;5.926;2023-03-23T08:34:05;8.02;;;1.40;;
47335;SDS011;33068;51.990;5.926;2023-03-23T08:36:51;7.43;;;1.30;;
47335;SDS011;33068;51.990;5.926;2023-03-23T08:39:36;10.55;;;2.03;;
47335;SDS011;33068;51.990;5.926;2023-03-23T08:42:24;12.77;;;1.55;;
47335;SDS011;33068;51.990;5.926;2023-03-23T08:45:22;3.97;;;1.52;;
47335;SDS011;33068;51.990;5.926;2023-03-23T08:47:52;4.82;;;1.20;;
47335;SDS011;33068;51.990;5.926;2023-03-23T08:50:43;9.57;;;1.30;;
47335;SDS011;33068;51.990;5.926;2023-03-23T08:53:11;6.28;;;0.90;;
47335;SDS011;33068;51.990;5.926;2023-03-23T08:55:47;5.72;;;0.95;;
47335;SDS011;33068;51.990;5.926;2023-03-23T09:01:29;6.95;;;0.90;;
47335;SDS011;33068;51.990;5.926;2023-03-23T09:04:11;3.13;;;0.70;;
47335;SDS011;33068;51.990;5.926;2023-03-23T09:07:13;5.18;;;0.73;;
47335;SDS011;33068;51.990;5.926;2023-03-23T09:09:40;4.95;;;0.88;;
47335;SDS011;33068;51.990;5.926;2023-03-23T09:12:09;5.00;;;0.68;;
47335;SDS011;33068;51.990;5.926;2023-03-23T09:14:37;5.50;;;0.68;;
47335;SDS011;33068;51.990;5.926;2023-03-23T09:17:05;3.47;;;0.90;;
47335;SDS011;33068;51.990;5.926;2023-03-23T09:19:33;4.15;;;0.50;;
47335;SDS011;33068;51.990;5.926;2023-03-23T09:22:01;3.67;;;0.65;;
47335;SDS011;33068;51.990;5.926;2023-03-23T09:24:30;1.85;;;0.73;;
47335;SDS011;33068;51.990;5.926;2023-03-23T09:26:58;4.47;;;0.60;;
47335;SDS011;33068;51.990;5.926;2023-03-23T09:29:25;4.07;;;0.40;;
47335;SDS011;33068;51.990;5.926;2023-03-23T09:31:52;2.75;;;0.60;;
47335;SDS011;33068;51.990;5.926;2023-03-23T09:34:21;2.08;;;0.50;;
47335;SDS011;33068;51.990;5.926;2023-03-23T09:36:49;2.58;;;0.50;;
47335;SDS011;33068;51.990;5.926;2023-03-23T09:39:17;2.90;;;0.52;;
47335;SDS011;33068;51.990;5.926;2023-03-23T09:41:49;2.25;;;0.43;;
47335;SDS011;33068;51.990;5.926;2023-03-23T09:44:41;3.88;;;0.50;;
47335;SDS011;33068;51.990;5.926;2023-03-23T09:47:19;4.50;;;0.60;;
47335;SDS011;33068;51.990;5.926;2023-03-23T09:49:54;9.90;;;0.98;;
47335;SDS011;33068;51.990;5.926;2023-03-23T09:52:27;4.53;;;0.73;;
47335;SDS011;33068;51.990;5.926;2023-03-23T09:55:04;4.30;;;0.60;;
47335;SDS011;33068;51.990;5.926;2023-03-23T09:57:34;4.32;;;0.60;;
47335;SDS011;33068;51.990;5.926;2023-03-23T10:00:09;3.92;;;0.63;;
47335;SDS011;33068;51.990;5.926;2023-03-23T10:02:41;3.92;;;0.65;;
47335;SDS011;33068;51.990;5.926;2023-03-23T10:05:24;6.95;;;0.73;;
47335;SDS011;33068;51.990;5.926;2023-03-23T10:07:57;7.15;;;0.80;;
47335;SDS011;33068;51.990;5.926;2023-03-23T10:10:26;11.18;;;1.05;;
47335;SDS011;33068;51.990;5.926;2023-03-23T10:13:03;8.35;;;1.23;;
47335;SDS011;33068;51.990;5.926;2023-03-23T10:15:38;4.68;;;1.23;;
47335;SDS011;33068;51.990;5.926;2023-03-23T10:18:08;7.78;;;1.00;;
47335;SDS011;33068;51.990;5.926;2023-03-23T10:20:41;8.15;;;1.10;;
47335;SDS011;33068;51.990;5.926;2023-03-23T10:23:24;9.82;;;1.00;;
47335;SDS011;33068;51.990;5.926;2023-03-23T10:26:22;10.10;;;1.10;;
47335;SDS011;33068;51.990;5.926;2023-03-23T10:29:01;8.52;;;0.95;;
47335;SDS011;33068;51.990;5.926;2023-03-23T10:31:38;8.20;;;1.60;;
47335;SDS011;33068;51.990;5.926;2023-03-23T10:34:09;7.00;;;0.95;;
47335;SDS011;33068;51.990;5.926;2023-03-23T10:36:48;6.85;;;0.95;;
47335;SDS011;33068;51.990;5.926;2023-03-23T10:39:22;8.82;;;1.33;;
47335;SDS011;33068;51.990;5.926;2023-03-23T10:41:53;6.28;;;1.20;;
47335;SDS011;33068;51.990;5.926;2023-03-23T10:44:23;8.30;;;1.02;;
47335;SDS011;33068;51.990;5.926;2023-03-23T10:46:55;9.70;;;1.88;;
47335;SDS011;33068;51.990;5.926;2023-03-23T10:49:27;9.57;;;1.60;;
47335;SDS011;33068;51.990;5.926;2023-03-23T10:52:00;13.57;;;2.22;;
47335;SDS011;33068;51.990;5.926;2023-03-23T10:54:35;13.68;;;2.00;;
47335;SDS011;33068;51.990;5.926;2023-03-23T10:57:12;4.80;;;0.85;;
47335;SDS011;33068;51.990;5.926;2023-03-23T10:59:48;11.27;;;1.88;;
47335;SDS011;33068;51.990;5.926;2023-03-23T11:02:16;12.65;;;1.30;;
47335;SDS011;33068;51.990;5.926;2023-03-23T11:04:45;13.15;;;1.48;;
47335;SDS011;33068;51.990;5.926;2023-03-23T11:07:24;9.38;;;1.17;;
47335;SDS011;33068;51.990;5.926;2023-03-23T11:09:55;8.35;;;0.98;;
47335;SDS011;33068;51.990;5.926;2023-03-23T11:12:34;9.02;;;1.33;;
47335;SDS011;33068;51.990;5.926;2023-03-23T11:15:14;7.53;;;1.08;;
47335;SDS011;33068;51.990;5.926;2023-03-23T11:17:54;5.20;;;1.00;;
47335;SDS011;33068;51.990;5.926;2023-03-23T11:20:24;6.07;;;0.98;;
47335;SDS011;33068;51.990;5.926;2023-03-23T11:22:53;6.65;;;1.10;;
47335;SDS011;33068;51.990;5.926;2023-03-23T11:25:22;7.97;;;1.10;;
47335;SDS011;33068;51.990;5.926;2023-03-23T11:27:49;8.93;;;1.08;;
47335;SDS011;33068;51.990;5.926;2023-03-23T11:30:23;5.57;;;1.02;;
47335;SDS011;33068;51.990;5.926;2023-03-23T11:32:52;9.10;;;1.10;;
47335;SDS011;33068;51.990;5.926;2023-03-23T11:35:22;8.63;;;0.93;;
47335;SDS011;33068;51.990;5.926;2023-03-23T11:37:53;4.78;;;0.70;;
47335;SDS011;33068;51.990;5.926;2023-03-23T11:40:22;9.57;;;1.50;;
47335;SDS011;33068;51.990;5.926;2023-03-23T11:42:56;11.80;;;1.73;;
47335;SDS011;33068;51.990;5.926;2023-03-23T11:48:06;8.13;;;0.70;;
47335;SDS011;33068;51.990;5.926;2023-03-23T11:50:47;4.80;;;1.15;;
47335;SDS011;33068;51.990;5.926;2023-03-23T11:53:22;6.15;;;0.88;;
47335;SDS011;33068;51.990;5.926;2023-03-23T11:56:14;4.78;;;1.23;;
47335;SDS011;33068;51.990;5.926;2023-03-23T11:58:48;5.40;;;1.23;;
47335;SDS011;33068;51.990;5.926;2023-03-23T12:01:21;8.27;;;1.23;;
47335;SDS011;33068;51.990;5.926;2023-03-23T12:03:58;8.55;;;1.38;;
47335;SDS011;33068;51.990;5.926;2023-03-23T12:06:45;5.55;;;0.98;;
47335;SDS011;33068;51.990;5.926;2023-03-23T12:09:23;5.35;;;1.00;;
47335;SDS011;33068;51.990;5.926;2023-03-23T12:12:04;7.18;;;1.60;;
47335;SDS011;33068;51.990;5.926;2023-03-23T12:14:38;8.55;;;1.40;;
47335;SDS011;33068;51.990;5.926;2023-03-23T12:17:32;8.50;;;0.98;;
47335;SDS011;33068;51.990;5.926;2023-03-23T12:20:13;12.75;;;1.38;;
47335;SDS011;33068;51.990;5.926;2023-03-23T12:22:54;9.25;;;1.30;;
47335;SDS011;33068;51.990;5.926;2023-03-23T12:25:38;6.22;;;1.33;;
47335;SDS011;33068;51.990;5.926;2023-03-23T12:28:17;10.65;;;1.90;;
47335;SDS011;33068;51.990;5.926;2023-03-23T12:30:55;9.93;;;1.73;;
47335;SDS011;33068;51.990;5.926;2023-03-23T12:33:33;8.05;;;1.90;;
47335;SDS011;33068;51.990;5.926;2023-03-23T12:36:14;7.72;;;1.67;;
47335;SDS011;33068;51.990;5.926;2023-03-23T12:38:56;9.43;;;1.55;;
47335;SDS011;33068;51.990;5.926;2023-03-23T12:41:39;3.20;;;1.40;;
47335;SDS011;33068;51.990;5.926;2023-03-23T12:44:12;7.50;;;1.52;;
47335;SDS011;33068;51.990;5.926;2023-03-23T12:46:51;5.13;;;1.35;;
47335;SDS011;33068;51.990;5.926;2023-03-23T12:49:41;5.68;;;1.20;;
47335;SDS011;33068;51.990;5.926;2023-03-23T12:52:13;7.53;;;1.58;;
47335;SDS011;33068;51.990;5.926;2023-03-23T12:54:48;6.35;;;1.38;;
47335;SDS011;33068;51.990;5.926;2023-03-23T12:57:23;10.38;;;1.33;;
47335;SDS011;33068;51.990;5.926;2023-03-23T12:59:59;6.80;;;1.30;;
47335;SDS011;33068;51.990;5.926;2023-03-23T13:02:38;8.57;;;1.33;;
47335;SDS011;33068;51.990;5.926;2023-03-23T13:05:10;8.88;;;1.30;;
47335;SDS011;33068;51.990;5.926;2023-03-23T13:07:42;7.78;;;1.60;;
47335;SDS011;33068;51.990;5.926;2023-03-23T13:10:16;9.20;;;1.52;;
47335;SDS011;33068;51.990;5.926;2023-03-23T13:12:47;6.03;;;1.45;;
47335;SDS011;33068;51.990;5.926;2023-03-23T13:15:20;6.15;;;2.05;;
47335;SDS011;33068;51.990;5.926;2023-03-23T13:18:00;8.20;;;1.60;;
47335;SDS011;33068;51.990;5.926;2023-03-23T13:20:38;10.85;;;2.00;;
47335;SDS011;33068;51.990;5.926;2023-03-23T13:23:14;11.23;;;1.95;;
47335;SDS011;33068;51.990;5.926;2023-03-23T13:25:47;11.93;;;2.47;;
47335;SDS011;33068;51.990;5.926;2023-03-23T13:28:20;7.68;;;1.83;;
47335;SDS011;33068;51.990;5.926;2023-03-23T13:30:55;12.38;;;1.58;;
47335;SDS011;33068;51.990;5.926;2023-03-23T13:33:30;4.90;;;1.20;;
47335;SDS011;33068;51.990;5.926;2023-03-23T13:36:08;7.03;;;1.27;;
47335;SDS011;33068;51.990;5.926;2023-03-23T13:38:43;5.50;;;1.00;;
47335;SDS011;33068;51.990;5.926;2023-03-23T13:41:17;6.28;;;0.98;;
47335;SDS011;33068;51.990;5.926;2023-03-23T13:43:46;3.38;;;1.40;;
47335;SDS011;33068;51.990;5.926;2023-03-23T13:46:25;10.68;;;1.17;;
47335;SDS011;33068;51.990;5.926;2023-03-23T13:52:14;4.68;;;0.88;;
47335;SDS011;33068;51.990;5.926;2023-03-23T13:54:44;6.82;;;0.90;;
47335;SDS011;33068;51.990;5.926;2023-03-23T13:57:24;6.90;;;1.98;;
47335;SDS011;33068;51.990;5.926;2023-03-23T14:00:09;6.57;;;1.15;;
47335;SDS011;33068;51.990;5.926;2023-03-23T14:02:58;4.75;;;1.42;;
47335;SDS011;33068;51.990;5.926;2023-03-23T14:05:32;5.60;;;1.10;;
47335;SDS011;33068;51.990;5.926;2023-03-23T14:08:10;3.55;;;1.38;;
47335;SDS011;33068;51.990;5.926;2023-03-23T14:10:41;3.22;;;1.25;;
47335;SDS011;33068;51.990;5.926;2023-03-23T14:13:16;6.77;;;1.80;;
47335;SDS011;33068;51.990;5.926;2023-03-23T14:15:53;4.60;;;1.23;;
47335;SDS011;33068;51.990;5.926;2023-03-23T14:18:24;2.10;;;1.20;;
47335;SDS011;33068;51.990;5.926;2023-03-23T14:20:55;7.93;;;2.20;;
47335;SDS011;33068;51.990;5.926;2023-03-23T14:23:25;5.97;;;1.90;;
47335;SDS011;33068;51.990;5.926;2023-03-23T14:25:58;5.30;;;1.75;;
47335;SDS011;33068;51.990;5.926;2023-03-23T14:28:38;11.05;;;2.42;;
47335;SDS011;33068;51.990;5.926;2023-03-23T14:31:18;5.22;;;2.13;;
47335;SDS011;33068;51.990;5.926;2023-03-23T14:33:47;10.15;;;1.95;;
47335;SDS011;33068;51.990;5.926;2023-03-23T14:36:21;3.38;;;1.63;;
47335;SDS011;33068;51.990;5.926;2023-03-23T14:38:56;5.97;;;1.70;;
47335;SDS011;33068;51.990;5.926;2023-03-23T14:41:29;11.88;;;2.60;;
47335;SDS011;33068;51.990;5.926;2023-03-23T14:44:01;10.45;;;2.65;;
47335;SDS011;33068;51.990;5.926;2023-03-23T14:46:34;9.35;;;2.53;;
47335;SDS011;33068;51.990;5.926;2023-03-23T14:49:03;8.45;;;2.00;;
47335;SDS011;33068;51.990;5.926;2023-03-23T14:51:33;5.13;;;1.75;;
47335;SDS011;33068;51.990;5.926;2023-03-23T14:54:07;8.35;;;2.03;;
47335;SDS011;33068;51.990;5.926;2023-03-23T14:56:38;9.48;;;1.98;;
47335;SDS011;33068;51.990;5.926;2023-03-23T14:59:09;4.60;;;1.60;;
47335;SDS011;33068;51.990;5.926;2023-03-23T15:01:37;6.30;;;1.48;;
47335;SDS011;33068;51.990;5.926;2023-03-23T15:04:08;7.68;;;1.45;;
47335;SDS011;33068;51.990;5.926;2023-03-23T15:06:38;4.35;;;1.00;;
47335;SDS011;33068;51.990;5.926;2023-03-23T15:09:11;4.45;;;0.95;;
47335;SDS011;33068;51.990;5.926;2023-03-23T15:11:40;4.05;;;0.88;;
47335;SDS011;33068;51.990;5.926;2023-03-23T15:14:19;8.23;;;1.00;;
47335;SDS011;33068;51.990;5.926;2023-03-23T15:16:49;14.82;;;1.30;;
47335;SDS011;33068;51.990;5.926;2023-03-23T15:19:19;8.68;;;0.90;;
47335;SDS011;33068;51.990;5.926;2023-03-23T15:21:50;4.38;;;0.88;;
47335;SDS011;33068;51.990;5.926;2023-03-23T15:24:32;5.65;;;1.35;;
47335;SDS011;33068;51.990;5.926;2023-03-23T15:27:10;10.45;;;1.00;;
47335;SDS011;33068;51.990;5.926;2023-03-23T15:29:46;6.10;;;1.10;;
47335;SDS011;33068;51.990;5.926;2023-03-23T15:32:19;7.47;;;1.40;;
47335;SDS011;33068;51.990;5.926;2023-03-23T15:34:51;6.10;;;1.10;;
47335;SDS011;33068;51.990;5.926;2023-03-23T15:37:20;7.40;;;1.00;;
47335;SDS011;33068;51.990;5.926;2023-03-23T15:39:51;3.85;;;0.70;;
47335;SDS011;33068;51.990;5.926;2023-03-23T15:42:20;13.95;;;1.27;;
47335;SDS011;33068;51.990;5.926;2023-03-23T15:44:57;9.02;;;1.17;;
47335;SDS011;33068;51.990;5.926;2023-03-23T15:47:36;7.20;;;1.40;;
47335;SDS011;33068;51.990;5.926;2023-03-23T15:50:09;10.20;;;1.25;;
47335;SDS011;33068;51.990;5.926;2023-03-23T15:52:39;7.55;;;1.30;;
47335;SDS011;33068;51.990;5.926;2023-03-23T15:55:18;8.15;;;1.38;;
47335;SDS011;33068;51.990;5.926;2023-03-23T15:57:48;6.93;;;1.02;;
47335;SDS011;33068;51.990;5.926;2023-03-23T16:00:37;6.68;;;1.00;;
47335;SDS011;33068;51.990;5.926;2023-03-23T16:03:16;8.23;;;1.45;;
47335;SDS011;33068;51.990;5.926;2023-03-23T16:05:45;8.35;;;1.30;;
47335;SDS011;33068;51.990;5.926;2023-03-23T16:08:12;7.88;;;1.42;;
47335;SDS011;33068;51.990;5.926;2023-03-23T16:10:42;8.45;;;1.50;;
47335;SDS011;33068;51.990;5.926;2023-03-23T16:13:09;7.78;;;1.73;;
47335;SDS011;33068;51.990;5.926;2023-03-23T16:15:37;14.18;;;1.67;;
47335;SDS011;33068;51.990;5.926;2023-03-23T16:18:04;3.97;;;1.00;;
47335;SDS011;33068;51.990;5.926;2023-03-23T16:20:31;6.68;;;1.30;;
47335;SDS011;33068;51.990;5.926;2023-03-23T16:22:59;10.60;;;1.42;;
47335;SDS011;33068;51.990;5.926;2023-03-23T16:25:26;5.65;;;1.33;;
47335;SDS011;33068;51.990;5.926;2023-03-23T16:27:54;7.05;;;0.80;;
47335;SDS011;33068;51.990;5.926;2023-03-23T16:30:22;6.80;;;1.02;;